createdAt,value
2022-08-10T00:01:54.587Z,57.90
2022-08-10T00:04:22.674Z,57.70
2022-08-10T00:06:51.124Z,58.00
2022-08-10T00:09:17.882Z,57.70
2022-08-10T00:11:44.607Z,57.70
2022-08-10T00:14:12.722Z,58.40
2022-08-10T00:16:39.487Z,57.70
2022-08-10T00:19:06.306Z,57.70
2022-08-10T00:21:33.031Z,57.90
2022-08-10T00:23:59.756Z,57.80
2022-08-10T00:26:26.521Z,58.20
2022-08-10T00:29:14.594Z,58.00
2022-08-10T00:31:57.772Z,58.00
2022-08-10T00:34:25.930Z,58.10
2022-08-10T00:36:52.691Z,58.10
2022-08-10T00:39:19.500Z,58.00
2022-08-10T00:41:46.366Z,57.60
2022-08-10T00:44:30.461Z,57.50
2022-08-10T00:46:57.243Z,57.60
2022-08-10T00:49:24.004Z,57.60
2022-08-10T00:51:50.793Z,57.70
2022-08-10T00:54:24.107Z,57.60
2022-08-10T00:57:17.503Z,57.60
2022-08-10T00:59:58.446Z,57.40
2022-08-10T01:02:26.598Z,57.70
2022-08-10T01:04:59.345Z,57.60
2022-08-10T01:07:41.216Z,57.40
2022-08-10T01:10:20.660Z,57.40
2022-08-10T01:12:54.264Z,57.50
2022-08-10T01:15:27.090Z,57.60
2022-08-10T01:18:01.328Z,57.70
2022-08-10T01:20:35.575Z,57.40
2022-08-10T01:23:36.825Z,57.50
2022-08-10T01:26:30.501Z,57.30
2022-08-10T01:29:06.526Z,57.20
2022-08-10T01:31:45.368Z,57.10
2022-08-10T01:34:16.326Z,57.30
2022-08-10T01:36:48.431Z,57.30
2022-08-10T01:39:22.791Z,57.20
2022-08-10T01:41:54.260Z,57.40
2022-08-10T01:44:29.121Z,57.40
2022-08-10T01:47:01.610Z,57.20
2022-08-10T01:49:29.753Z,57.20
2022-08-10T01:52:00.562Z,57.20
2022-08-10T01:54:28.637Z,56.90
2022-08-10T01:56:57.973Z,56.90
2022-08-10T01:59:29.864Z,57.20
2022-08-10T02:02:02.522Z,57.20
2022-08-10T02:04:32.712Z,57.30
2022-08-10T02:07:01.070Z,57.80
2022-08-10T02:09:31.186Z,57.70
2022-08-10T02:12:08.193Z,57.80
2022-08-10T02:14:41.830Z,57.50
2022-08-10T02:17:57.375Z,57.10
2022-08-10T02:20:05.460Z,57.10
2022-08-10T02:22:37.720Z,57.00
2022-08-10T02:25:07.884Z,56.80
2022-08-10T02:27:36.949Z,57.20
2022-08-10T02:30:05.633Z,57.10
2022-08-10T02:32:38.161Z,56.90
2022-08-10T02:35:19.400Z,57.00
2022-08-10T02:37:51.200Z,57.20
2022-08-10T02:42:18.328Z,57.30
2022-08-10T02:45:19.059Z,57.10
2022-08-10T02:46:08.221Z,57.20
2022-08-10T02:48:41.790Z,57.20
2022-08-10T02:51:18.388Z,56.90
2022-08-10T02:53:51.653Z,56.80
2022-08-10T02:56:28.435Z,56.90
2022-08-10T02:58:59.080Z,57.00
2022-08-10T03:01:32.019Z,57.20
2022-08-10T03:04:04.964Z,57.00
2022-08-10T03:06:38.474Z,56.90
2022-08-10T03:09:08.478Z,56.80
2022-08-10T03:12:35.971Z,56.90
2022-08-10T03:14:26.322Z,57.10
2022-08-10T03:16:55.450Z,57.10
2022-08-10T03:20:35.414Z,56.90
2022-08-10T03:22:12.478Z,56.90
2022-08-10T03:24:41.263Z,57.00
2022-08-10T03:27:09.095Z,56.90
2022-08-10T03:30:29.800Z,57.10
2022-08-10T03:32:24.582Z,56.80
2022-08-10T03:34:53.870Z,56.80
2022-08-10T03:37:20.707Z,57.00
2022-08-10T03:39:47.593Z,56.90
2022-08-10T03:42:16.138Z,57.10
2022-08-10T03:44:50.405Z,57.30
2022-08-10T03:47:19.172Z,57.40
2022-08-10T03:49:47.791Z,57.20
2022-08-10T03:52:17.531Z,57.30
2022-08-10T03:54:45.073Z,57.00
2022-08-10T03:57:12.193Z,57.10
2022-08-10T03:59:39.338Z,57.20
2022-08-10T04:02:47.142Z,57.40
2022-08-10T04:04:53.173Z,57.60
2022-08-10T04:07:21.372Z,57.50
2022-08-10T04:09:55.615Z,57.20
2022-08-10T04:12:23.584Z,57.20
2022-08-10T04:14:52.733Z,57.10
2022-08-10T04:18:03.082Z,57.40
2022-08-10T04:20:13.797Z,57.60
2022-08-10T04:22:44.123Z,57.60
2022-08-10T04:25:12.712Z,57.60
2022-08-10T04:27:39.718Z,57.60
2022-08-10T04:30:07.789Z,57.50
2022-08-10T04:32:35.850Z,57.40
2022-08-10T04:35:04.650Z,57.60
2022-08-10T04:37:32.615Z,57.30
2022-08-10T04:40:01.470Z,57.80
2022-08-10T04:42:28.603Z,57.80
2022-08-10T04:44:55.871Z,57.80
2022-08-10T04:48:00.649Z,58.10
2022-08-10T04:50:09.859Z,58.00
2022-08-10T04:52:36.909Z,58.20
2022-08-10T04:55:06.066Z,58.00
2022-08-10T04:57:32.815Z,57.90
2022-08-10T04:59:59.579Z,58.20
2022-08-10T05:02:38.590Z,58.50
2022-08-10T05:05:06.453Z,58.40
2022-08-10T05:07:33.241Z,58.30
2022-08-10T05:10:18.661Z,58.60
2022-08-10T05:12:45.386Z,58.30
2022-08-10T05:15:14.510Z,58.10
2022-08-10T05:18:03.370Z,58.10
2022-08-10T05:20:29.626Z,58.40
2022-08-10T05:22:56.447Z,58.20
2022-08-10T05:25:24.575Z,58.30
2022-08-10T05:27:52.489Z,58.40
2022-08-10T05:30:22.256Z,58.60
2022-08-10T05:32:56.715Z,58.50
2022-08-10T05:35:25.917Z,58.30
2022-08-10T05:38:09.348Z,58.20
2022-08-10T05:40:46.546Z,58.20
2022-08-10T05:43:16.790Z,58.30
2022-08-10T05:46:18.780Z,58.10
2022-08-10T05:48:55.191Z,58.00
2022-08-10T05:51:19.172Z,58.50
2022-08-10T05:54:01.939Z,58.50
2022-08-10T05:56:56.527Z,58.30
2022-08-10T06:00:32.782Z,58.10
2022-08-10T06:02:30.988Z,58.10
2022-08-10T06:05:03.653Z,58.50
2022-08-10T06:07:31.005Z,58.80
2022-08-10T06:10:00.581Z,58.60
2022-08-10T06:12:31.740Z,58.50
2022-08-10T06:15:05.055Z,58.50
2022-08-10T06:17:33.507Z,58.70
2022-08-10T06:20:01.180Z,58.70
2022-08-10T06:22:28.655Z,58.40
2022-08-10T06:25:26.959Z,58.60
2022-08-10T06:27:46.877Z,58.80
2022-08-10T06:30:20.779Z,58.70
2022-08-10T06:32:49.251Z,58.50
2022-08-10T06:35:17.357Z,58.80
2022-08-10T06:37:51.345Z,59.60
2022-08-10T06:40:19.212Z,58.70
2022-08-10T06:42:49.939Z,58.50
2022-08-10T06:45:19.882Z,58.60
2022-08-10T06:47:51.239Z,58.70
2022-08-10T06:50:56.134Z,58.70
2022-08-10T06:53:12.217Z,58.70
2022-08-10T06:55:55.504Z,58.50
2022-08-10T06:58:29.193Z,58.50
2022-08-10T07:00:57.133Z,58.10
2022-08-10T07:03:31.413Z,58.00
2022-08-10T07:06:00.406Z,57.70
2022-08-10T07:08:31.379Z,57.80
2022-08-10T07:10:59.427Z,57.50
2022-08-10T07:14:14.305Z,57.60
2022-08-10T07:16:18.708Z,57.40
2022-08-10T07:18:48.590Z,57.30
2022-08-10T07:21:17.714Z,57.40
2022-08-10T07:23:57.349Z,57.20
2022-08-10T07:26:29.061Z,57.10
2022-08-10T07:28:58.423Z,57.00
2022-08-10T07:31:31.118Z,57.10
2022-08-10T07:34:28.582Z,57.20
2022-08-10T07:37:00.843Z,57.00
2022-08-10T07:40:02.608Z,57.00
2022-08-10T07:42:19.256Z,57.10
2022-08-10T07:44:49.056Z,57.20
2022-08-10T07:47:54.055Z,57.10
2022-08-10T07:50:10.511Z,57.10
2022-08-10T07:52:38.286Z,57.20
2022-08-10T07:55:07.849Z,57.20
2022-08-10T07:57:39.980Z,57.10
2022-08-10T08:00:09.548Z,57.30
2022-08-10T08:02:39.656Z,57.20
2022-08-10T08:05:09.463Z,57.10
2022-08-10T08:07:38.283Z,57.10
2022-08-10T08:10:08.418Z,57.10
2022-08-10T08:12:37.095Z,57.00
2022-08-10T08:16:14.253Z,57.00
2022-08-10T08:17:59.797Z,57.10
2022-08-10T08:20:28.784Z,57.00
2022-08-10T08:24:16.237Z,57.00
2022-08-10T08:25:45.261Z,57.00
2022-08-10T08:28:13.291Z,56.90
2022-08-10T08:30:45.714Z,56.90
2022-08-10T08:33:19.955Z,56.90
2022-08-10T08:36:05.572Z,56.50
2022-08-10T08:38:35.406Z,56.60
2022-08-10T08:41:23.133Z,56.50
2022-08-10T08:44:01.940Z,56.60
2022-08-10T08:46:59.296Z,56.50
2022-08-10T08:50:07.787Z,56.40
2022-08-10T08:52:39.964Z,56.50
2022-08-10T08:56:03.520Z,56.50
2022-08-10T08:58:20.337Z,56.50
2022-08-10T09:00:56.033Z,56.50
2022-08-10T09:03:41.479Z,56.50
2022-08-10T09:06:22.967Z,56.20
2022-08-10T09:09:10.442Z,56.40
2022-08-10T09:11:52.547Z,56.20
2022-08-10T09:14:25.674Z,56.10
2022-08-10T09:16:59.395Z,55.90
2022-08-10T09:19:38.752Z,55.90
2022-08-10T09:22:17.252Z,56.10
2022-08-10T09:24:49.891Z,56.10
2022-08-10T09:27:21.112Z,55.20
2022-08-10T09:29:57.626Z,55.70
2022-08-10T09:36:16.446Z,55.40
2022-08-10T09:36:22.445Z,54.40
2022-08-10T09:38:26.715Z,55.10
2022-08-10T09:41:09.112Z,55.10
2022-08-10T09:43:51.750Z,55.10
2022-08-10T09:46:30.821Z,55.10
2022-08-10T09:49:05.326Z,55.30
2022-08-10T09:51:45.834Z,55.30
2022-08-10T09:54:23.272Z,55.40
2022-08-10T09:57:11.959Z,55.50
2022-08-10T10:00:00.888Z,55.50
2022-08-10T10:02:37.866Z,55.60
2022-08-10T10:05:14.508Z,55.40
2022-08-10T10:07:49.321Z,55.50
2022-08-10T10:10:21.313Z,55.40
2022-08-10T10:12:54.273Z,55.60
2022-08-10T10:15:31.558Z,55.60
2022-08-10T10:18:13.812Z,55.50
2022-08-10T10:20:49.248Z,55.60
2022-08-10T10:23:28.716Z,55.50
2022-08-10T10:26:08.469Z,55.10
2022-08-10T10:31:44.257Z,55.10
2022-08-10T10:34:18.264Z,55.30
2022-08-10T10:36:45.613Z,55.30
2022-08-10T10:39:19.488Z,54.90
2022-08-10T10:42:03.267Z,53.90
2022-08-10T10:44:42.587Z,54.20
2022-08-10T10:47:22.307Z,54.70
2022-08-10T10:49:54.270Z,54.60
2022-08-10T10:52:33.706Z,54.90
2022-08-10T10:55:13.523Z,55.00
2022-08-10T10:58:00.064Z,55.00
2022-08-10T11:00:34.460Z,54.40
2022-08-10T11:03:14.395Z,53.90
2022-08-10T11:05:49.544Z,54.10
2022-08-10T11:08:29.120Z,54.50
2022-08-10T11:11:01.322Z,53.60
2022-08-10T11:14:27.497Z,53.80
2022-08-10T11:16:28.692Z,54.30
2022-08-10T11:19:03.342Z,54.60
2022-08-10T11:21:51.619Z,55.50
2022-08-10T11:24:48.837Z,54.20
2022-08-10T11:27:23.244Z,54.10
2022-08-10T11:30:00.598Z,53.80
2022-08-10T11:32:41.074Z,53.90
2022-08-10T11:35:31.662Z,54.20
2022-08-10T11:38:30.415Z,54.50
2022-08-10T11:42:05.245Z,54.20
2022-08-10T11:44:04.967Z,54.10
2022-08-10T11:46:34.525Z,53.70
2022-08-10T11:49:08.312Z,53.90
2022-08-10T11:51:42.960Z,52.30
2022-08-10T11:54:21.379Z,53.40
2022-08-10T11:56:50.570Z,53.40
2022-08-10T11:59:22.125Z,53.40
2022-08-10T12:01:51.777Z,53.50
2022-08-10T12:04:19.978Z,53.50
2022-08-10T12:06:56.307Z,53.50
2022-08-10T12:10:09.836Z,53.60
2022-08-10T12:12:12.255Z,53.60
2022-08-10T12:14:48.277Z,53.60
2022-08-10T12:17:20.107Z,53.70
2022-08-10T12:20:02.723Z,53.30
2022-08-10T12:22:33.927Z,52.50
2022-08-10T12:25:04.632Z,52.70
2022-08-10T12:27:36.618Z,52.70
2022-08-10T12:30:07.993Z,51.70
2022-08-10T12:32:43.344Z,50.80
2022-08-10T12:35:22.074Z,51.70
2022-08-10T12:38:02.723Z,52.20
2022-08-10T12:40:36.165Z,51.20
2022-08-10T12:44:05.362Z,51.90
2022-08-10T12:46:06.776Z,50.90
2022-08-10T12:48:39.156Z,51.70
2022-08-10T12:51:13.201Z,51.60
2022-08-10T12:53:46.743Z,51.30
2022-08-10T12:56:21.228Z,50.40
2022-08-10T12:58:59.527Z,49.20
2022-08-10T13:02:06.218Z,49.90
2022-08-10T13:04:26.853Z,49.70
2022-08-10T13:06:53.938Z,50.60
2022-08-10T13:09:22.412Z,51.00
2022-08-10T13:12:36.686Z,51.30
2022-08-10T13:14:48.195Z,49.20
2022-08-10T13:17:23.574Z,50.50
2022-08-10T13:19:56.369Z,50.80
2022-08-10T13:22:30.407Z,50.70
2022-08-10T13:25:01.164Z,50.90
2022-08-10T13:28:03.331Z,50.70
2022-08-10T13:30:37.698Z,51.30
2022-08-10T13:33:09.257Z,50.50
2022-08-10T13:35:37.427Z,50.80
2022-08-10T13:38:04.786Z,50.90
2022-08-10T13:40:32.743Z,50.80
2022-08-10T13:43:02.371Z,49.90
2022-08-10T13:45:30.275Z,50.60
2022-08-10T13:48:13.897Z,48.60
2022-08-10T13:50:41.792Z,49.10
2022-08-10T13:53:14.771Z,48.80
2022-08-10T13:55:53.982Z,49.70
2022-08-10T13:58:25.635Z,49.80
2022-08-10T14:00:53.943Z,49.60
2022-08-10T14:03:23.155Z,50.00
2022-08-10T14:05:51.932Z,50.20
2022-08-10T14:08:22.988Z,50.00
2022-08-10T14:11:09.354Z,50.10
2022-08-10T14:13:43.378Z,50.10
2022-08-10T14:16:11.660Z,50.10
2022-08-10T14:18:40.437Z,50.80
2022-08-10T14:21:07.782Z,50.00
2022-08-10T14:23:40.407Z,50.00
2022-08-10T14:26:09.375Z,49.90
2022-08-10T14:28:39.604Z,49.80
2022-08-10T14:31:09.837Z,49.70
2022-08-10T14:33:42.089Z,49.80
2022-08-10T14:36:20.427Z,49.80
2022-08-10T14:38:53.238Z,49.80
2022-08-10T14:42:03.346Z,49.70
2022-08-10T14:44:19.397Z,49.70
2022-08-10T14:46:53.437Z,49.20
2022-08-10T14:49:27.165Z,49.20
2022-08-10T14:52:01.037Z,49.30
2022-08-10T14:54:30.087Z,49.10
2022-08-10T14:57:11.534Z,49.20
2022-08-10T15:00:22.474Z,49.00
2022-08-10T15:02:40.695Z,49.00
2022-08-10T15:05:22.693Z,48.50
2022-08-10T15:07:59.311Z,47.70
2022-08-10T15:10:28.161Z,48.80
2022-08-10T15:12:58.632Z,48.40
2022-08-10T15:15:29.067Z,47.60
2022-08-10T15:17:58.841Z,47.90
2022-08-10T15:20:29.977Z,47.00
2022-08-10T15:23:03.907Z,47.20
2022-08-10T15:25:31.116Z,45.90
2022-08-10T15:28:06.589Z,46.80
2022-08-10T15:30:39.499Z,46.60
2022-08-10T15:33:09.334Z,46.40
2022-08-10T15:35:40.034Z,46.50
2022-08-10T15:38:08.204Z,46.90
2022-08-10T15:40:50.692Z,46.60
2022-08-10T15:43:25.796Z,46.80
2022-08-10T15:45:58.118Z,46.20
2022-08-10T15:48:30.364Z,46.20
2022-08-10T15:51:06.027Z,46.50
2022-08-10T15:53:49.006Z,46.00
2022-08-10T15:56:28.419Z,46.20
2022-08-10T15:59:07.832Z,46.50
2022-08-10T16:02:13.768Z,46.50
2022-08-10T16:04:32.700Z,46.30
2022-08-10T16:07:06.271Z,46.30
2022-08-10T16:10:10.871Z,46.10
2022-08-10T16:12:32.229Z,46.10
2022-08-10T16:15:02.539Z,46.30
2022-08-10T16:17:33.682Z,46.70
2022-08-10T16:20:27.880Z,46.60
2022-08-10T16:23:02.797Z,46.50
2022-08-10T16:25:44.572Z,46.70
2022-08-10T16:28:20.139Z,46.90
2022-08-10T16:30:53.873Z,46.60
2022-08-10T16:33:24.620Z,46.70
2022-08-10T16:36:17.365Z,46.70
2022-08-10T16:38:48.294Z,46.70
2022-08-10T16:41:52.054Z,46.50
2022-08-10T16:44:05.334Z,47.50
2022-08-10T16:46:34.018Z,47.00
2022-08-10T16:49:02.108Z,47.70
2022-08-10T16:51:30.379Z,46.70
2022-08-10T16:54:00.656Z,46.90
2022-08-10T16:56:31.472Z,46.80
2022-08-10T16:58:59.773Z,46.70
2022-08-10T17:01:31.057Z,46.90
2022-08-10T17:04:06.406Z,47.00
2022-08-10T17:06:40.751Z,46.90
2022-08-10T17:09:16.853Z,47.10
2022-08-10T17:11:47.799Z,47.20
2022-08-10T17:14:14.877Z,47.00
2022-08-10T17:16:44.168Z,47.00
2022-08-10T17:19:13.540Z,46.80
2022-08-10T17:21:50.974Z,47.00
2022-08-10T17:24:23.886Z,47.10
2022-08-10T17:26:52.898Z,47.20
2022-08-10T17:29:58.142Z,47.40
2022-08-10T17:32:20.583Z,47.20
2022-08-10T17:34:52.097Z,47.30
2022-08-10T17:37:22.510Z,47.20
2022-08-10T17:40:05.119Z,47.10
2022-08-10T17:42:33.579Z,47.00
2022-08-10T17:45:01.148Z,47.10
2022-08-10T17:47:28.174Z,46.50
2022-08-10T17:49:56.266Z,46.90
2022-08-10T17:52:27.065Z,47.00
2022-08-10T17:54:59.359Z,47.00
2022-08-10T17:57:27.435Z,46.70
2022-08-10T17:59:55.117Z,46.80
2022-08-10T18:02:25.090Z,46.80
2022-08-10T18:04:56.368Z,46.80
2022-08-10T18:07:30.788Z,46.30
2022-08-10T18:10:00.289Z,46.50
2022-08-10T18:12:36.523Z,46.40
2022-08-10T18:15:13.714Z,46.20
2022-08-10T18:17:45.970Z,46.20
2022-08-10T18:20:14.227Z,46.00
2022-08-10T18:22:44.456Z,46.20
2022-08-10T18:25:18.232Z,46.20
2022-08-10T18:28:04.551Z,45.90
2022-08-10T18:30:36.141Z,45.90
2022-08-10T18:33:08.525Z,46.60
2022-08-10T18:35:35.852Z,46.50
2022-08-10T18:38:04.397Z,46.10
2022-08-10T18:40:35.434Z,46.20
2022-08-10T18:43:09.939Z,46.20
2022-08-10T18:45:54.831Z,46.20
2022-08-10T18:48:22.115Z,46.10
2022-08-10T18:50:52.067Z,46.50
2022-08-10T18:53:29.525Z,46.20
2022-08-10T18:56:10.723Z,46.40
2022-08-10T18:59:02.532Z,46.50
2022-08-10T19:01:47.135Z,46.40
2022-08-10T19:04:23.953Z,46.30
2022-08-10T19:07:22.879Z,46.30
2022-08-10T19:10:03.507Z,46.70
2022-08-10T19:12:46.977Z,46.70
2022-08-10T19:15:23.034Z,46.70
2022-08-10T19:18:06.332Z,46.90
2022-08-10T19:20:35.906Z,47.10
2022-08-10T19:23:12.793Z,48.00
2022-08-10T19:26:43.041Z,47.90
2022-08-10T19:28:44.367Z,47.90
2022-08-10T19:31:18.870Z,47.30
2022-08-10T19:34:11.742Z,47.30
2022-08-10T19:36:50.587Z,47.10
2022-08-10T19:39:25.255Z,47.20
2022-08-10T19:42:11.232Z,47.30
2022-08-10T19:44:46.460Z,47.50
2022-08-10T19:47:23.360Z,47.40
2022-08-10T19:49:57.007Z,47.40
2022-08-10T19:52:30.460Z,47.60
2022-08-10T19:55:05.295Z,47.50
2022-08-10T19:57:37.109Z,47.50
2022-08-10T20:00:19.176Z,47.70
2022-08-10T20:03:02.672Z,48.50
2022-08-10T20:05:32.225Z,47.80
2022-08-10T20:08:05.327Z,47.80
2022-08-10T20:10:40.856Z,48.10
2022-08-10T20:13:14.437Z,47.90
2022-08-10T20:15:47.052Z,48.00
2022-08-10T20:18:22.975Z,48.20
2022-08-10T20:20:56.460Z,48.30
2022-08-10T20:23:28.467Z,48.40
2022-08-10T20:25:58.999Z,48.50
2022-08-10T20:28:36.095Z,48.50
2022-08-10T20:31:17.294Z,48.70
2022-08-10T20:33:52.381Z,48.70
2022-08-10T20:36:25.286Z,48.80
2022-08-10T20:39:03.245Z,48.80
2022-08-10T20:41:45.844Z,48.70
2022-08-10T20:44:35.086Z,48.80
2022-08-10T20:47:10.192Z,48.90
2022-08-10T20:49:47.394Z,48.90
2022-08-10T20:52:14.773Z,49.10
2022-08-10T20:54:48.736Z,49.10
2022-08-10T20:58:03.898Z,49.30
2022-08-10T21:00:23.061Z,49.30
2022-08-10T21:03:05.740Z,49.40
2022-08-10T21:05:42.876Z,49.50
2022-08-10T21:08:18.562Z,49.60
2022-08-10T21:11:00.480Z,49.60
2022-08-10T21:13:56.878Z,49.80
2022-08-10T21:16:47.342Z,49.80
2022-08-10T21:19:52.263Z,50.00
2022-08-10T21:22:25.351Z,49.90
2022-08-10T21:25:00.207Z,49.90
2022-08-10T21:28:08.734Z,50.10
2022-08-10T21:30:51.053Z,50.70
2022-08-10T21:33:27.110Z,50.20
2022-08-10T21:36:07.729Z,50.10
2022-08-10T21:38:47.821Z,50.20
2022-08-10T21:41:57.529Z,50.20
2022-08-10T21:44:28.315Z,50.20
2022-08-10T21:47:01.655Z,50.40
2022-08-10T21:49:37.300Z,50.20
2022-08-10T21:52:12.222Z,50.40
2022-08-10T21:54:49.638Z,50.70
2022-08-10T21:57:23.601Z,50.70
2022-08-10T21:59:59.271Z,50.50
2022-08-10T22:02:31.851Z,50.70
2022-08-10T22:05:00.274Z,50.80
2022-08-10T22:07:53.281Z,50.70
2022-08-10T22:10:20.670Z,51.00
2022-08-10T22:12:54.044Z,50.80
2022-08-10T22:15:22.718Z,50.80
2022-08-10T22:17:59.903Z,50.50
2022-08-10T22:20:34.709Z,50.70
2022-08-10T22:23:29.131Z,50.80
2022-08-10T22:26:11.267Z,50.80
2022-08-10T22:28:45.526Z,50.80
2022-08-10T22:31:32.091Z,50.90
2022-08-10T22:34:13.902Z,51.10
2022-08-10T22:37:00.644Z,51.10
2022-08-10T22:40:07.419Z,51.20
2022-08-10T22:42:58.912Z,50.90
2022-08-10T22:45:26.815Z,51.30
2022-08-10T22:47:58.307Z,51.30
2022-08-10T22:50:27.129Z,51.10
2022-08-10T22:53:04.380Z,51.20
2022-08-10T22:55:37.756Z,51.30
2022-08-10T22:58:04.720Z,51.40
2022-08-10T23:00:32.390Z,51.40
2022-08-10T23:03:06.983Z,51.60
2022-08-10T23:05:37.169Z,51.60
2022-08-10T23:08:11.671Z,51.60
2022-08-10T23:11:03.083Z,51.80
2022-08-10T23:13:36.011Z,51.80
2022-08-10T23:16:09.615Z,51.80
2022-08-10T23:18:43.601Z,51.70
2022-08-10T23:21:13.585Z,51.80
2022-08-10T23:23:42.023Z,51.90
2022-08-10T23:26:14.455Z,51.80
2022-08-10T23:29:05.186Z,51.80
2022-08-10T23:32:00.865Z,51.80
2022-08-10T23:34:22.310Z,52.10
2022-08-10T23:36:51.564Z,51.70
2022-08-10T23:39:26.038Z,52.00
2022-08-10T23:42:00.604Z,52.00
2022-08-10T23:44:38.140Z,51.90
2022-08-10T23:47:06.729Z,51.90
2022-08-10T23:49:35.807Z,51.80
2022-08-10T23:52:10.049Z,51.80
2022-08-10T23:54:43.303Z,51.80
2022-08-10T23:57:16.899Z,51.90
2022-08-10T23:59:50.579Z,52.70
